createdAt,value
2019-03-11T00:02:40.401Z,98421.45
2019-03-11T00:05:23.192Z,98417.68
2019-03-11T00:08:04.616Z,98419.77
2019-03-11T00:10:35.598Z,98423.66
2019-03-11T00:13:26.018Z,98421.44
2019-03-11T00:16:15.619Z,98426.27
2019-03-11T00:19:05.306Z,98409.22
2019-03-11T00:21:36.066Z,98418.39
2019-03-11T00:24:07.560Z,98411.70
2019-03-11T00:26:38.330Z,98413.24
2019-03-11T00:29:09.125Z,98418.04
2019-03-11T00:31:59.981Z,98429.20
2019-03-11T00:34:30.764Z,98415.97
2019-03-11T00:37:21.689Z,98420.19
2019-03-11T00:39:52.630Z,98423.39
2019-03-11T00:42:42.615Z,98435.45
2019-03-11T00:45:14.571Z,98428.16
2019-03-11T00:48:23.276Z,98429.58
2019-03-11T00:50:54.070Z,98431.92
2019-03-11T00:53:25.328Z,98426.52
2019-03-11T00:55:56.213Z,98424.58
2019-03-11T00:58:46.224Z,98424.70
2019-03-11T01:01:36.004Z,98421.98
2019-03-11T01:04:25.595Z,98424.70
2019-03-11T01:06:56.448Z,98418.01
2019-03-11T01:09:47.609Z,98408.47
2019-03-11T01:12:37.264Z,98405.22
2019-03-11T01:15:08.232Z,98410.73
2019-03-11T01:18:16.760Z,98410.09
2019-03-11T01:20:47.432Z,98412.48
2019-03-11T01:23:18.124Z,98407.00
2019-03-11T01:25:49.173Z,98410.97
2019-03-11T01:28:19.894Z,98396.48
2019-03-11T01:31:09.486Z,98398.19
2019-03-11T01:33:40.195Z,98387.39
2019-03-11T01:36:29.910Z,98388.70
2019-03-11T01:39:19.537Z,98378.02
2019-03-11T01:42:09.448Z,98374.53
2019-03-11T01:44:59.245Z,98371.09
2019-03-11T01:47:29.894Z,98364.75
2019-03-11T01:50:19.822Z,98363.48
2019-03-11T01:53:09.718Z,98356.59
2019-03-11T01:55:59.405Z,98346.77
2019-03-11T01:58:49.272Z,98339.50
2019-03-11T02:01:31.386Z,98337.76
2019-03-11T02:06:46.730Z,98328.48
2019-03-11T02:09:36.666Z,98325.39
2019-03-11T02:12:26.806Z,98322.13
2019-03-11T02:15:16.506Z,98317.70
2019-03-11T02:18:06.567Z,98314.88
2019-03-11T02:20:56.433Z,98312.81
2019-03-11T02:23:27.127Z,98308.30
2019-03-11T02:25:58.323Z,98307.27
2019-03-11T02:28:28.916Z,98300.34
2019-03-11T02:31:10.311Z,98294.05
2019-03-11T02:33:58.238Z,98279.37
2019-03-11T02:36:39.947Z,98270.03
2019-03-11T02:39:22.628Z,98262.91
2019-03-11T02:41:53.973Z,98255.13
2019-03-11T02:44:44.261Z,98249.94
2019-03-11T02:47:26.518Z,98247.68
2019-03-11T02:49:58.772Z,98244.00
2019-03-11T02:52:48.816Z,98246.24
2019-03-11T02:55:41.288Z,98232.41
2019-03-11T02:58:31.459Z,98227.91
2019-03-11T03:01:21.202Z,98219.24
2019-03-11T03:09:50.263Z,98176.03
2019-03-11T03:12:22.305Z,98203.29
2019-03-11T03:15:12.145Z,98206.91
2019-03-11T03:23:54.398Z,98212.92
2019-03-11T03:26:26.146Z,98207.53
2019-03-11T03:29:16.120Z,98196.91
2019-03-11T03:31:47.190Z,98199.18
2019-03-11T03:34:18.053Z,98197.11
2019-03-11T03:36:51.533Z,98197.19
2019-03-11T03:39:41.312Z,98198.24
2019-03-11T03:42:13.633Z,98199.86
2019-03-11T03:45:22.786Z,98202.20
2019-03-11T03:47:54.463Z,98199.48
2019-03-11T03:51:04.730Z,98202.84
2019-03-11T03:54:13.259Z,98201.95
2019-03-11T04:02:55.261Z,98194.95
2019-03-11T04:05:26.964Z,98199.82
2019-03-11T04:08:17.156Z,98197.80
2019-03-11T04:11:08.343Z,98192.42
2019-03-11T04:13:40.807Z,98191.69
2019-03-11T04:16:13.580Z,98181.44
2019-03-11T04:19:04.098Z,98175.02
2019-03-11T04:21:57.462Z,98175.08
2019-03-11T04:24:47.720Z,98181.16
2019-03-11T04:27:22.985Z,98177.63
2019-03-11T04:30:08.434Z,98187.53
2019-03-11T04:35:56.022Z,98181.05
2019-03-11T04:38:46.069Z,98183.11
2019-03-11T04:41:20.533Z,98180.47
2019-03-11T04:44:10.059Z,98177.94
2019-03-11T04:46:41.004Z,98153.78
2019-03-11T04:52:22.127Z,98150.88
2019-03-11T04:55:27.391Z,98140.42
2019-03-11T04:58:04.723Z,98137.64
2019-03-11T05:00:54.638Z,98119.34
2019-03-11T05:03:46.318Z,98093.97
2019-03-11T05:06:17.994Z,98087.47
2019-03-11T05:08:48.719Z,98081.52
2019-03-11T05:11:38.652Z,98075.92
2019-03-11T05:17:27.086Z,98099.27
2019-03-11T05:19:57.821Z,98091.25
2019-03-11T05:22:47.782Z,98098.22
2019-03-11T05:25:37.609Z,98096.69
2019-03-11T05:28:08.944Z,98088.82
2019-03-11T05:30:39.891Z,98096.36
2019-03-11T05:33:31.110Z,98109.83
2019-03-11T05:36:20.760Z,98101.52
2019-03-11T05:38:51.600Z,98094.19
2019-03-11T05:41:41.531Z,98097.87
2019-03-11T05:44:31.072Z,98089.36
2019-03-11T05:47:04.073Z,98091.95
2019-03-11T05:49:34.800Z,98090.14
2019-03-11T05:52:26.487Z,98086.58
2019-03-11T05:55:17.696Z,98082.11
2019-03-11T05:57:49.121Z,98087.37
2019-03-11T06:00:39.273Z,98100.95
2019-03-11T06:03:10.225Z,98100.90
2019-03-11T06:05:41.171Z,98092.91
2019-03-11T06:08:23.803Z,98093.33
2019-03-11T06:10:54.417Z,98089.68
2019-03-11T06:13:35.295Z,98097.16
2019-03-11T06:15:57.481Z,98083.00
2019-03-11T06:18:52.865Z,98089.23
2019-03-11T06:21:42.297Z,98084.17
2019-03-11T06:24:32.049Z,98079.06
2019-03-11T06:27:02.791Z,98080.85
2019-03-11T06:29:52.751Z,98102.42
2019-03-11T06:32:42.619Z,98101.44
2019-03-11T06:38:45.868Z,98099.67
2019-03-11T06:41:35.545Z,98107.00
2019-03-11T06:44:06.360Z,97954.04
2019-03-11T06:46:36.955Z,98109.13
2019-03-11T06:49:26.549Z,98128.91
2019-03-11T06:51:58.086Z,98130.42
2019-03-11T06:54:31.851Z,98139.52
2019-03-11T06:57:21.394Z,98130.16
2019-03-11T07:00:04.345Z,98137.30
2019-03-11T07:02:35.811Z,98155.60
2019-03-11T07:05:06.826Z,98136.79
2019-03-11T07:07:48.814Z,98137.81
2019-03-11T07:10:31.091Z,98121.47
2019-03-11T07:13:15.244Z,98133.61
2019-03-11T07:15:54.455Z,98143.94
2019-03-11T07:18:25.256Z,98133.47
2019-03-11T07:20:56.045Z,98144.84
2019-03-11T07:23:26.683Z,98147.75
2019-03-11T07:25:59.622Z,98162.88
2019-03-11T07:28:49.310Z,98153.08
2019-03-11T07:31:20.137Z,98154.64
2019-03-11T07:34:28.730Z,98170.52
2019-03-11T07:37:19.456Z,98175.48
2019-03-11T07:40:11.887Z,98041.16
2019-03-11T07:42:43.185Z,98190.14
2019-03-11T07:45:32.762Z,98195.33
2019-03-11T07:48:03.673Z,98191.55
2019-03-11T07:50:35.434Z,98185.97
2019-03-11T07:53:25.045Z,98203.52
2019-03-11T07:56:36.005Z,98224.66
2019-03-11T07:59:08.230Z,98133.39
2019-03-11T08:01:57.784Z,98227.01
2019-03-11T08:04:47.575Z,98244.28
2019-03-11T08:07:30.169Z,98231.43
2019-03-11T08:10:00.867Z,98254.52
2019-03-11T08:12:50.577Z,98254.12
2019-03-11T08:15:42.334Z,98273.30
2019-03-11T08:18:13.079Z,98288.30
2019-03-11T08:21:03.322Z,98325.06
2019-03-11T08:23:53.088Z,98284.61
2019-03-11T08:26:24.002Z,98293.39
2019-03-11T08:29:13.673Z,98296.32
2019-03-11T08:32:03.226Z,98283.05
2019-03-11T08:34:33.938Z,98283.83
2019-03-11T08:37:23.483Z,98284.23
2019-03-11T08:39:58.144Z,98281.20
2019-03-11T08:45:12.882Z,98301.09
2019-03-11T08:47:43.746Z,98305.57
2019-03-11T08:50:52.133Z,98305.27
2019-03-11T08:53:22.859Z,98310.88
2019-03-11T08:56:12.393Z,98305.07
2019-03-11T08:58:42.978Z,98302.59
2019-03-11T09:01:32.666Z,98298.96
2019-03-11T09:04:03.229Z,98153.67
2019-03-11T09:06:33.904Z,98308.42
2019-03-11T09:12:15.436Z,98287.53
2019-03-11T09:15:05.293Z,98285.69
2019-03-11T09:17:55.156Z,98304.74
2019-03-11T09:20:44.660Z,98288.67
2019-03-11T09:25:51.098Z,98279.25
2019-03-11T09:28:21.836Z,98283.06
2019-03-11T09:30:52.821Z,98285.88
2019-03-11T09:33:42.398Z,98295.08
2019-03-11T09:36:31.903Z,98309.12
2019-03-11T09:39:03.009Z,98303.52
2019-03-11T09:41:34.502Z,98308.30
2019-03-11T09:44:15.136Z,98298.54
2019-03-11T09:47:04.727Z,98286.58
2019-03-11T09:49:54.244Z,98301.76
2019-03-11T09:52:24.884Z,98307.28
2019-03-11T09:55:14.436Z,98301.36
2019-03-11T09:57:45.088Z,98299.36
2019-03-11T10:00:18.424Z,98290.11
2019-03-11T10:02:53.006Z,98297.53
2019-03-11T10:05:41.375Z,98301.37
2019-03-11T10:08:23.524Z,98317.41
2019-03-11T10:11:05.317Z,98311.74
2019-03-11T10:13:46.979Z,98320.78
2019-03-11T10:16:17.650Z,98328.83
2019-03-11T10:19:07.237Z,98332.66
2019-03-11T10:21:39.038Z,98336.61
2019-03-11T10:24:28.940Z,98340.33
2019-03-11T10:27:18.629Z,98340.19
2019-03-11T10:30:09.120Z,98343.62
2019-03-11T10:32:58.635Z,98338.09
2019-03-11T10:36:06.933Z,98341.72
2019-03-11T10:38:37.824Z,98350.14
2019-03-11T10:41:27.494Z,98356.00
2019-03-11T10:43:58.099Z,98343.12
2019-03-11T10:46:32.433Z,98358.03
2019-03-11T10:49:03.357Z,98354.88
2019-03-11T10:51:34.018Z,98351.77
2019-03-11T10:54:04.753Z,98357.64
2019-03-11T10:56:43.131Z,98374.88
2019-03-11T10:59:13.769Z,98352.31
2019-03-11T11:01:45.038Z,98373.52
2019-03-11T11:04:35.126Z,98381.46
2019-03-11T11:07:06.194Z,98380.66
2019-03-11T11:09:37.769Z,98377.67
2019-03-11T11:12:09.744Z,98376.87
2019-03-11T11:15:02.474Z,98389.75
2019-03-11T11:17:52.987Z,98263.88
2019-03-11T11:20:26.374Z,98396.14
2019-03-11T11:23:00.637Z,98410.77
2019-03-11T11:25:33.941Z,98417.53
2019-03-11T11:30:41.952Z,98397.39
2019-03-11T11:33:31.546Z,98399.27
2019-03-11T11:36:02.198Z,98402.36
2019-03-11T11:38:35.325Z,98405.00
2019-03-11T11:41:06.850Z,98420.38
2019-03-11T11:43:37.589Z,98414.22
2019-03-11T11:46:10.301Z,98399.19
2019-03-11T11:49:03.794Z,98421.41
2019-03-11T11:51:36.227Z,98393.09
2019-03-11T11:54:08.076Z,98411.48
2019-03-11T11:56:57.901Z,98413.19
2019-03-11T11:59:28.934Z,98420.95
2019-03-11T12:02:04.283Z,98419.25
2019-03-11T12:04:55.194Z,98433.88
2019-03-11T12:07:27.798Z,98416.88
2019-03-11T12:10:18.540Z,98424.53
2019-03-11T12:13:08.511Z,98427.11
2019-03-11T12:15:40.754Z,98433.54
2019-03-11T12:18:32.236Z,98442.84
2019-03-11T12:21:24.189Z,98285.77
2019-03-11T12:27:04.108Z,98438.50
2019-03-11T12:29:34.984Z,98444.30
2019-03-11T12:32:08.077Z,98437.70
2019-03-11T12:35:02.466Z,98446.45
2019-03-11T12:37:36.123Z,98307.44
2019-03-11T12:43:38.653Z,98414.50
2019-03-11T12:46:09.844Z,98444.88
2019-03-11T12:48:41.105Z,98454.00
2019-03-11T12:51:30.629Z,98457.42
2019-03-11T12:54:03.232Z,98465.69
2019-03-11T12:56:36.287Z,98462.58
2019-03-11T12:59:11.425Z,98453.80
2019-03-11T13:01:42.057Z,98446.16
2019-03-11T13:04:32.779Z,98449.66
2019-03-11T13:07:19.918Z,98453.47
2019-03-11T13:09:52.422Z,98438.66
2019-03-11T13:12:23.446Z,98453.66
2019-03-11T13:15:14.504Z,98461.73
2019-03-11T13:17:45.247Z,98448.66
2019-03-11T13:20:35.060Z,98454.08
2019-03-11T13:23:08.363Z,98466.69
2019-03-11T13:25:41.308Z,98479.80
2019-03-11T13:28:22.814Z,98476.80
2019-03-11T13:34:36.200Z,98468.59
2019-03-11T13:37:07.242Z,98475.15
2019-03-11T13:39:37.891Z,98477.39
2019-03-11T13:42:09.858Z,98483.09
2019-03-11T13:44:59.464Z,98476.43
2019-03-11T13:47:30.074Z,98494.97
2019-03-11T13:50:01.615Z,98511.17
2019-03-11T13:52:53.298Z,98505.16
2019-03-11T13:55:24.058Z,98515.13
2019-03-11T13:57:54.799Z,98509.92
2019-03-11T14:00:44.288Z,98519.06
2019-03-11T14:03:33.950Z,98514.80
2019-03-11T14:06:23.532Z,98524.90
2019-03-11T14:08:54.621Z,98499.70
2019-03-11T14:11:26.095Z,98513.70
2019-03-11T14:13:56.737Z,98529.91
2019-03-11T14:16:47.362Z,98520.19
2019-03-11T14:19:19.329Z,98524.39
2019-03-11T14:22:08.973Z,98525.72
2019-03-11T14:24:39.800Z,98512.88
2019-03-11T14:27:10.733Z,98531.30
2019-03-11T14:30:00.371Z,98530.11
2019-03-11T14:32:31.043Z,98547.94
2019-03-11T14:35:01.765Z,98539.77
2019-03-11T14:37:32.794Z,98552.27
2019-03-11T14:40:03.321Z,98559.71
2019-03-11T14:42:34.080Z,98550.25
2019-03-11T14:45:05.305Z,98557.44
2019-03-11T14:47:54.927Z,98567.30
2019-03-11T14:50:25.567Z,98568.63
2019-03-11T14:52:56.295Z,98581.57
2019-03-11T14:55:27.945Z,98573.75
2019-03-11T14:58:00.973Z,98575.27
2019-03-11T15:00:32.065Z,98572.20
2019-03-11T15:03:03.293Z,98582.10
2019-03-11T15:05:54.771Z,98577.58
2019-03-11T15:08:25.795Z,98598.73
2019-03-11T15:11:20.413Z,98592.73
2019-03-11T15:13:51.528Z,98584.83
2019-03-11T15:16:22.393Z,98591.66
2019-03-11T15:19:05.002Z,98581.13
2019-03-11T15:21:36.139Z,98577.67
2019-03-11T15:24:27.000Z,98578.53
2019-03-11T15:27:16.958Z,98568.63
2019-03-11T15:29:48.840Z,98568.11
2019-03-11T15:32:38.708Z,98568.99
2019-03-11T15:35:10.457Z,98558.09
2019-03-11T15:38:00.422Z,98589.20
2019-03-11T15:41:10.374Z,98593.61
2019-03-11T15:44:00.336Z,98596.71
2019-03-11T15:46:38.917Z,98595.72
2019-03-11T15:49:23.912Z,98596.39
2019-03-11T15:52:14.087Z,98607.00
2019-03-11T15:54:46.516Z,98602.33
2019-03-11T15:57:39.121Z,98601.52
2019-03-11T16:00:11.704Z,98624.07
2019-03-11T16:03:01.581Z,98668.46
2019-03-11T16:05:32.288Z,98677.99
2019-03-11T16:08:42.670Z,98674.84
2019-03-11T16:11:13.772Z,98657.91
2019-03-11T16:13:45.514Z,98649.66
2019-03-11T16:16:16.647Z,98629.25
2019-03-11T16:21:31.571Z,98639.59
2019-03-11T16:24:28.411Z,98634.92
2019-03-11T16:27:01.487Z,98623.59
2019-03-11T16:29:33.641Z,98625.70
2019-03-11T16:32:26.190Z,98625.31
2019-03-11T16:35:17.706Z,98630.98
2019-03-11T16:37:50.783Z,98631.03
2019-03-11T16:40:40.368Z,98639.16
2019-03-11T16:43:15.840Z,98638.20
2019-03-11T16:46:06.250Z,98639.25
2019-03-11T16:48:38.311Z,98643.14
2019-03-11T16:51:10.516Z,98644.15
2019-03-11T16:53:41.975Z,98643.04
2019-03-11T17:00:00.411Z,98632.92
2019-03-11T17:02:31.394Z,98549.15
2019-03-11T17:05:02.386Z,98627.23
2019-03-11T17:07:33.508Z,98628.63
2019-03-11T17:10:07.054Z,98636.84
2019-03-11T17:12:37.931Z,98639.36
2019-03-11T17:15:09.751Z,98654.13
2019-03-11T17:17:41.766Z,98648.95
2019-03-11T17:20:13.381Z,98661.52
2019-03-11T17:22:44.171Z,98660.81
2019-03-11T17:25:35.551Z,98664.67
2019-03-11T17:28:06.481Z,98668.50
2019-03-11T17:30:43.948Z,98683.08
2019-03-11T17:33:35.186Z,98685.17
2019-03-11T17:36:06.093Z,98685.39
2019-03-11T17:38:56.200Z,98686.87
2019-03-11T17:41:27.979Z,98688.58
2019-03-11T17:44:00.496Z,98702.05
2019-03-11T17:46:50.508Z,98706.99
2019-03-11T17:49:41.275Z,98709.62
2019-03-11T17:52:31.738Z,98722.49
2019-03-11T17:55:21.447Z,98682.59
2019-03-11T17:58:11.522Z,98719.65
2019-03-11T18:00:54.461Z,98735.78
2019-03-11T18:03:15.104Z,98735.78
2019-03-11T18:05:46.333Z,98742.14
2019-03-11T18:08:35.913Z,98747.22
2019-03-11T18:11:27.074Z,98756.58
2019-03-11T18:14:00.635Z,98758.58
2019-03-11T18:16:37.160Z,98773.52
2019-03-11T18:19:28.086Z,98770.19
2019-03-11T18:22:18.508Z,98618.69
2019-03-11T18:25:10.270Z,98777.23
2019-03-11T18:27:42.933Z,98779.75
2019-03-11T18:30:17.187Z,98770.09
2019-03-11T18:33:09.274Z,98768.94
2019-03-11T18:35:40.220Z,98767.58
2019-03-11T18:38:11.708Z,98768.72
2019-03-11T18:40:43.396Z,98773.56
2019-03-11T18:43:20.532Z,98784.48
2019-03-11T18:45:48.381Z,98783.28
2019-03-11T18:48:38.417Z,98797.87
2019-03-11T18:51:30.183Z,98797.13
2019-03-11T18:54:20.011Z,98805.25
2019-03-11T18:56:50.861Z,98801.81
2019-03-11T18:59:22.197Z,98803.96
2019-03-11T19:02:11.948Z,98810.68
2019-03-11T19:05:02.633Z,98805.61
2019-03-11T19:07:55.151Z,98804.81
2019-03-11T19:10:25.638Z,98819.72
2019-03-11T19:12:58.760Z,98829.70
2019-03-11T19:15:32.691Z,98830.15
2019-03-11T19:18:03.435Z,98834.92
2019-03-11T19:20:52.942Z,98831.89
2019-03-11T19:23:45.464Z,98833.59
2019-03-11T19:26:37.812Z,98835.69
2019-03-11T19:29:08.742Z,98843.80
2019-03-11T19:31:39.845Z,98843.17
2019-03-11T19:34:32.872Z,98842.00
2019-03-11T19:37:04.749Z,98845.00
2019-03-11T19:39:36.153Z,98849.87
2019-03-11T19:42:26.193Z,98850.85
2019-03-11T19:45:16.566Z,98855.92
2019-03-11T19:48:06.786Z,98850.82
2019-03-11T19:50:56.723Z,98862.91
2019-03-11T19:53:28.189Z,98852.71
2019-03-11T19:56:02.406Z,98850.58
2019-03-11T19:58:33.429Z,98858.86
2019-03-11T20:01:04.624Z,98855.95
2019-03-11T20:03:38.644Z,98855.06
2019-03-11T20:06:30.132Z,98860.44
2019-03-11T20:09:43.502Z,98864.21
2019-03-11T20:15:11.412Z,98865.68
2019-03-11T20:24:02.102Z,98876.09
2019-03-11T20:41:51.653Z,98906.88
2019-03-11T20:47:12.739Z,98901.16
2019-03-11T20:49:43.737Z,98913.63
2019-03-11T20:52:14.494Z,98912.69
2019-03-11T20:55:06.584Z,98919.95
2019-03-11T20:57:38.091Z,98911.22
2019-03-11T21:00:12.851Z,98902.66
2019-03-11T21:02:43.605Z,98903.67
2019-03-11T21:05:35.629Z,98913.78
2019-03-11T21:08:09.402Z,98903.67
2019-03-11T21:11:00.892Z,98920.20
2019-03-11T21:13:33.495Z,98922.50
2019-03-11T21:16:05.540Z,98914.75
2019-03-11T21:18:36.824Z,98936.28
2019-03-11T21:21:09.573Z,98940.17
2019-03-11T21:23:40.536Z,98930.23
2019-03-11T21:26:30.553Z,98932.80
2019-03-11T21:29:20.058Z,98943.77
2019-03-11T21:31:51.753Z,98929.44
2019-03-11T21:34:41.326Z,98932.70
2019-03-11T21:37:23.564Z,98942.39
2019-03-11T21:40:04.956Z,98925.50
2019-03-11T21:42:37.757Z,98928.70
2019-03-11T21:45:10.605Z,98937.57
2019-03-11T21:47:41.389Z,98938.95
2019-03-11T21:50:16.414Z,98934.05
2019-03-11T21:52:47.503Z,98943.28
2019-03-11T21:55:19.132Z,98955.16
2019-03-11T21:57:50.714Z,98962.13
2019-03-11T22:00:40.562Z,98961.11
2019-03-11T22:03:11.333Z,98969.53
2019-03-11T22:06:01.098Z,98960.46
2019-03-11T22:08:32.015Z,98961.42
2019-03-11T22:11:02.973Z,98950.47
2019-03-11T22:13:33.858Z,98962.47
2019-03-11T22:16:05.093Z,98962.22
2019-03-11T22:18:55.032Z,98956.32
2019-03-11T22:21:26.079Z,98963.39
2019-03-11T22:23:57.335Z,98967.22
2019-03-11T22:26:28.552Z,98963.83
2019-03-11T22:29:02.298Z,98964.42
2019-03-11T22:31:33.130Z,98962.74
2019-03-11T22:34:04.246Z,98959.02
2019-03-11T22:36:35.657Z,98965.50
2019-03-11T22:39:44.502Z,98956.08
2019-03-11T22:42:34.787Z,98958.18
2019-03-11T22:45:07.487Z,98968.97
2019-03-11T22:47:58.773Z,98962.55
2019-03-11T22:50:48.986Z,98967.59
2019-03-11T22:53:39.245Z,98976.23
2019-03-11T22:56:29.784Z,98968.97
2019-03-11T22:59:19.658Z,98975.61
2019-03-11T23:01:50.677Z,98973.89
2019-03-11T23:04:41.331Z,98969.48
2019-03-11T23:07:11.943Z,98975.77
2019-03-11T23:09:53.685Z,98973.66
2019-03-11T23:12:36.214Z,98971.59
2019-03-11T23:15:18.098Z,98968.77
2019-03-11T23:17:48.992Z,98981.25
2019-03-11T23:20:19.871Z,98977.00
2019-03-11T23:23:09.341Z,98978.22
2019-03-11T23:26:00.812Z,98985.91
2019-03-11T23:28:31.460Z,98930.15
2019-03-11T23:31:21.193Z,98995.05
2019-03-11T23:34:10.725Z,99000.26
2019-03-11T23:36:41.495Z,98994.07
2019-03-11T23:39:12.592Z,98997.28
2019-03-11T23:41:43.958Z,99007.08
2019-03-11T23:44:34.016Z,99008.94
2019-03-11T23:47:24.180Z,99003.63
2019-03-11T23:49:54.840Z,98998.32
2019-03-11T23:52:44.886Z,99005.15
2019-03-11T23:55:34.684Z,99009.02
2019-03-11T23:58:24.592Z,99013.34
